首页
METAR-TAF:

METAR-TAF

机场 :

爱德华·劳伦斯·洛根将军国际机场

波士顿, 马萨诸塞州, 美国

纬度: 42-21-38N, 经度: 071-00-38W, 海拔: 6米

当前天气观测

该预报发布于11分钟前的16:54 UTC
风速10节,风向
温度 4°C
湿度 87%
气压 1012 hPa
能見度: 9.7公里
多云层高于800英尺
阴天层高于3900英尺
小雨

METAR: KBOS 201654Z 35010KT 6SM -RA BKN008 OVC039 04/02 A2989 RMK AO2 DZE50RAB50 SLP121 P0001 T00440017

时间: 12:05 (17:05 UTC)

预报

该预报发布于2小时和10分钟前的14:55 UTC
预报有效从20日的 15点(UTC)到 21日的 18点(UTC)
风速9节,风向
能見度: 6.4公里
散云层高于900英尺
阴天层高于1200英尺
小毛毛雨
从 20日的 1700点(UTC)
风速11节,风向
能見度: 6.4公里
阴天层高于900英尺
小雨
从 20日的 2100点(UTC)
风速11节,风向北转西北
能見度: 9.7公里
阴天层高于800英尺
小雨
从 21日的 0300点(UTC)
风速13节,风向北转西北,有时为17节阵风
能見度: 10公里
多云层高于1500英尺
从 21日的 0500点(UTC)
风速12节,风向北转西北,有时为18节阵风
能見度: 10公里
多云层高于4000英尺
从 21日的 0900点(UTC)
风速9节,风向西北
能見度: 10公里
少量云层高于15000英尺

TAF: KBOS 201455Z 2015/2118 36009KT 4SM -DZ SCT009 OVC012 FM201700 36011KT 4SM -RA OVC009 FM202100 34011KT 6SM -RA OVC008 FM210300 34013G17KT P6SM BKN015 FM210500 33012G18KT P6SM BKN040 FM210900 32009KT P6SM FEW150

超过4000个机场的气象观测和天气预报(METAR&TAF报告)。

可查询的气象台以黄色和红色小点在地图上表示。

将鼠标移到小点上方,可查看气象台名称。

然后点击查看天气观测和预报。

如需切换地图:点击带黑十字的绿色按钮放大地图;点击带横线的绿色按钮缩小地图;或者点击绿色箭头查看邻近地区的地图。


METAR-TAF: